createdAt,value
2023-01-17T09:33:00.126Z,2.88
2023-01-17T09:49:48.527Z,2.13
2023-01-17T09:52:21.456Z,2.45
2023-01-17T09:54:50.987Z,2.30
2023-01-17T10:01:00.964Z,3.10
2023-01-17T10:04:38.287Z,1.83
2023-01-17T10:07:46.505Z,1.65
2023-01-17T10:15:11.830Z,1.70
2023-01-17T10:18:29.954Z,1.13
2023-01-17T10:22:04.367Z,1.30
2023-01-17T10:25:13.089Z,1.30
2023-01-17T10:28:18.404Z,1.55
2023-01-17T10:31:04.893Z,1.95
2023-01-17T10:33:50.059Z,1.73
2023-01-17T10:36:36.076Z,1.60
2023-01-17T10:39:28.846Z,1.80
2023-01-17T10:42:29.148Z,1.40
2023-01-17T10:48:46.014Z,1.27
2023-01-17T10:52:11.355Z,1.50
2023-01-17T10:55:37.384Z,1.75
2023-01-17T10:58:05.078Z,1.92
2023-01-17T11:07:32.661Z,2.75
2023-01-17T11:10:00.116Z,1.90
2023-01-17T11:20:54.077Z,1.60
2023-01-17T11:23:34.164Z,1.70
2023-01-17T11:26:07.549Z,1.95
2023-01-17T11:28:40.618Z,1.67
2023-01-17T11:31:27.168Z,1.13
2023-01-17T11:34:31.990Z,1.60
2023-01-17T11:37:20.597Z,1.48
2023-01-17T11:39:48.220Z,1.27
2023-01-17T11:42:37.932Z,1.25
2023-01-17T11:45:32.825Z,1.50
2023-01-17T11:48:13.694Z,1.17
2023-01-17T11:50:58.727Z,0.90
2023-01-17T11:53:36.990Z,1.63
2023-01-17T11:56:36.643Z,0.88
2023-01-17T11:59:43.256Z,0.88
2023-01-17T12:02:52.012Z,1.10
2023-01-17T12:06:13.936Z,1.00
2023-01-17T12:09:22.883Z,1.30
2023-01-17T12:12:51.405Z,1.13
2023-01-17T12:16:32.072Z,0.93
2023-01-17T12:19:32.616Z,1.27
2023-01-17T12:23:05.577Z,1.40
2023-01-17T12:26:23.959Z,1.08
2023-01-17T12:29:58.823Z,0.90
2023-01-17T12:33:19.319Z,0.88
2023-01-17T12:35:59.615Z,0.63
2023-01-17T12:38:39.051Z,0.75
2023-01-17T12:41:37.444Z,1.13
2023-01-17T12:44:05.467Z,1.15
2023-01-17T12:46:49.089Z,1.35
2023-01-17T12:50:06.613Z,1.58
2023-01-17T12:53:24.342Z,0.70
2023-01-17T12:56:27.364Z,1.08
2023-01-17T13:00:10.391Z,1.10
2023-01-17T13:03:20.328Z,1.02
2023-01-17T13:05:48.787Z,1.47
2023-01-17T13:08:43.723Z,1.50
2023-01-17T13:11:30.479Z,1.50
2023-01-17T13:13:59.882Z,0.80
2023-01-17T14:25:15.620Z,2.30
